createdAt,value
2022-12-22T00:00:29.031Z,14.50
2022-12-22T00:01:29.991Z,19.00
2022-12-22T00:02:30.959Z,18.20
2022-12-22T00:03:31.566Z,19.30
2022-12-22T00:04:32.021Z,27.80
2022-12-22T00:05:32.890Z,24.60
2022-12-22T00:06:33.774Z,17.60
2022-12-22T00:07:34.648Z,11.30
2022-12-22T00:08:35.529Z,13.80
2022-12-22T00:09:36.415Z,18.90
2022-12-22T00:10:37.314Z,15.80
2022-12-22T00:11:38.186Z,24.00
2022-12-22T00:12:39.072Z,24.70
2022-12-22T00:13:39.942Z,22.80
2022-12-22T00:14:40.826Z,70.00
2022-12-22T00:15:41.725Z,26.00
2022-12-22T00:16:42.713Z,7.10
2022-12-22T00:17:43.587Z,5.20
2022-12-22T00:18:44.449Z,8.40
2022-12-22T00:19:45.351Z,5.00
2022-12-22T00:20:46.216Z,6.70
2022-12-22T00:21:47.101Z,9.40
2022-12-22T00:22:47.996Z,20.50
2022-12-22T00:23:48.872Z,11.90
2022-12-22T00:24:49.766Z,18.10
2022-12-22T00:25:50.669Z,27.40
2022-12-22T00:26:51.552Z,26.80
2022-12-22T00:27:52.432Z,19.80
2022-12-22T00:28:53.317Z,14.00
2022-12-22T00:29:54.200Z,9.50
2022-12-22T00:30:55.222Z,28.70
2022-12-22T00:31:55.595Z,31.00
2022-12-22T00:32:56.482Z,49.10
2022-12-22T00:33:57.364Z,86.20
2022-12-22T00:34:58.275Z,33.40
2022-12-22T00:35:59.136Z,5.10
2022-12-22T00:37:00.015Z,4.00
2022-12-22T00:38:00.892Z,5.50
2022-12-22T00:39:01.786Z,4.50
2022-12-22T00:40:02.659Z,5.10
2022-12-22T00:41:03.581Z,5.50
2022-12-22T00:42:04.463Z,5.30
2022-12-22T00:43:05.342Z,5.20
2022-12-22T00:44:06.236Z,4.80
2022-12-22T00:45:07.115Z,5.60
2022-12-22T00:46:08.036Z,3.70
2022-12-22T00:47:08.890Z,5.20
2022-12-22T00:48:09.773Z,6.20
2022-12-22T00:49:10.657Z,6.30
2022-12-22T00:50:11.565Z,9.80
2022-12-22T00:51:12.432Z,8.20
2022-12-22T00:52:13.317Z,11.50
2022-12-22T00:53:14.200Z,10.10
2022-12-22T00:54:15.088Z,10.50
2022-12-22T00:55:16.002Z,14.40
2022-12-22T00:56:16.866Z,24.80
2022-12-22T00:57:17.752Z,15.90
2022-12-22T00:58:18.699Z,6.40
2022-12-22T00:59:19.593Z,5.70
2022-12-22T01:00:20.466Z,4.60
2022-12-22T01:01:21.474Z,5.50
2022-12-22T01:02:22.493Z,4.40
2022-12-22T01:03:23.028Z,4.40
2022-12-22T01:04:23.883Z,6.60
2022-12-22T01:05:24.801Z,5.10
2022-12-22T01:06:25.667Z,4.50
2022-12-22T01:07:26.553Z,4.80
2022-12-22T01:08:27.437Z,3.60
2022-12-22T01:09:28.321Z,4.00
2022-12-22T01:10:29.205Z,4.60
2022-12-22T01:11:30.104Z,4.40
2022-12-22T01:12:30.980Z,5.20
2022-12-22T01:13:31.868Z,4.20
2022-12-22T01:14:32.751Z,5.20
2022-12-22T01:15:33.759Z,5.30
2022-12-22T01:16:34.269Z,10.80
2022-12-22T01:17:35.134Z,10.90
2022-12-22T01:18:36.018Z,8.90
2022-12-22T01:19:36.902Z,6.20
2022-12-22T01:20:37.806Z,5.60
2022-12-22T01:21:38.667Z,64.20
2022-12-22T01:22:39.554Z,18.50
2022-12-22T01:23:40.433Z,31.20
2022-12-22T01:24:41.345Z,14.80
2022-12-22T01:25:42.201Z,5.80
2022-12-22T01:26:43.095Z,8.30
2022-12-22T01:27:43.979Z,4.90
2022-12-22T01:28:44.862Z,6.00
2022-12-22T01:29:45.746Z,4.40
2022-12-22T01:30:46.669Z,3.40
2022-12-22T01:31:47.552Z,3.60
2022-12-22T01:32:48.419Z,4.50
2022-12-22T01:33:49.310Z,3.50
2022-12-22T01:34:50.174Z,3.90
2022-12-22T01:35:51.120Z,3.50
2022-12-22T01:36:51.956Z,3.00
2022-12-22T01:37:52.850Z,4.20
2022-12-22T01:38:53.726Z,4.20
2022-12-22T01:39:54.657Z,4.20
2022-12-22T01:40:55.507Z,7.60
2022-12-22T01:41:56.409Z,73.80
2022-12-22T01:42:57.319Z,26.10
2022-12-22T01:43:58.174Z,74.70
2022-12-22T01:44:59.054Z,33.90
2022-12-22T01:45:59.986Z,6.00
2022-12-22T01:47:00.843Z,13.40
2022-12-22T01:48:01.730Z,35.50
2022-12-22T01:49:02.615Z,3.80
2022-12-22T01:50:03.499Z,5.80
2022-12-22T01:51:04.404Z,4.50
2022-12-22T01:52:05.280Z,5.10
2022-12-22T01:53:06.163Z,5.60
2022-12-22T01:54:07.061Z,55.10
2022-12-22T01:55:07.932Z,51.50
2022-12-22T01:56:08.815Z,128.10
2022-12-22T01:57:09.724Z,44.90
2022-12-22T01:58:10.607Z,15.40
2022-12-22T01:59:11.545Z,10.90
2022-12-22T02:00:12.416Z,10.80
2022-12-22T02:01:13.383Z,14.50
2022-12-22T02:02:14.423Z,58.00
2022-12-22T02:03:14.838Z,38.60
2022-12-22T02:04:15.679Z,28.40
2022-12-22T02:05:16.564Z,61.00
2022-12-22T02:06:17.471Z,23.20
2022-12-22T02:07:18.347Z,74.10
2022-12-22T02:08:19.236Z,43.60
2022-12-22T02:09:20.126Z,59.60
2022-12-22T02:10:21.006Z,40.00
2022-12-22T02:11:21.884Z,24.00
2022-12-22T02:12:22.773Z,21.40
2022-12-22T02:13:23.656Z,50.90
2022-12-22T02:14:29.708Z,26.40
2022-12-22T02:15:26.321Z,25.70
2022-12-22T02:16:26.293Z,7.50
2022-12-22T02:17:27.171Z,12.80
2022-12-22T02:18:28.051Z,14.60
2022-12-22T02:19:28.934Z,9.80
2022-12-22T02:20:29.819Z,22.80
2022-12-22T02:21:30.725Z,27.50
2022-12-22T02:22:31.586Z,59.20
2022-12-22T02:23:32.472Z,17.90
2022-12-22T02:24:33.358Z,17.80
2022-12-22T02:25:34.243Z,11.40
2022-12-22T02:26:35.124Z,13.00
2022-12-22T02:27:36.014Z,18.20
2022-12-22T02:28:36.903Z,20.10
2022-12-22T02:29:37.784Z,12.30
2022-12-22T02:30:38.813Z,14.10
2022-12-22T02:31:39.503Z,6.00
2022-12-22T02:32:40.417Z,6.80
2022-12-22T02:33:41.300Z,20.30
2022-12-22T02:34:42.185Z,33.40
2022-12-22T02:35:43.075Z,13.90
2022-12-22T02:36:43.987Z,13.30
2022-12-22T02:37:44.847Z,11.30
2022-12-22T02:38:45.729Z,7.60
2022-12-22T02:39:46.644Z,6.10
2022-12-22T02:40:47.501Z,4.30
2022-12-22T02:41:48.381Z,8.50
2022-12-22T02:42:49.273Z,12.40
2022-12-22T02:43:50.157Z,25.40
2022-12-22T02:44:51.036Z,21.40
2022-12-22T02:45:51.914Z,39.00
2022-12-22T02:46:52.842Z,20.40
2022-12-22T02:47:53.748Z,19.70
2022-12-22T02:48:54.633Z,12.80
2022-12-22T02:49:55.517Z,7.90
2022-12-22T02:50:56.411Z,10.60
2022-12-22T02:51:57.307Z,7.70
2022-12-22T02:52:58.188Z,12.10
2022-12-22T02:53:59.072Z,6.40
2022-12-22T02:54:59.953Z,7.80
2022-12-22T02:56:00.838Z,2.50
2022-12-22T02:57:01.333Z,4.30
2022-12-22T02:58:02.225Z,3.80
2022-12-22T02:59:03.120Z,2.70
2022-12-22T03:00:03.992Z,2.70
2022-12-22T03:01:04.876Z,2.70
2022-12-22T03:02:06.123Z,3.40
2022-12-22T03:03:06.727Z,2.20
2022-12-22T03:04:07.268Z,2.20
2022-12-22T03:05:08.151Z,2.50
2022-12-22T03:06:09.034Z,2.10
2022-12-22T03:07:09.951Z,2.90
2022-12-22T03:08:10.839Z,1.90
2022-12-22T03:09:11.717Z,2.30
2022-12-22T03:10:12.588Z,2.10
2022-12-22T03:11:13.462Z,2.60
2022-12-22T03:12:14.347Z,2.50
2022-12-22T03:13:15.259Z,4.10
2022-12-22T03:14:16.142Z,2.60
2022-12-22T03:15:17.030Z,1.90
2022-12-22T03:16:17.986Z,2.00
2022-12-22T03:17:18.864Z,2.30
2022-12-22T03:18:19.766Z,2.30
2022-12-22T03:19:20.667Z,2.70
2022-12-22T03:20:21.530Z,3.30
2022-12-22T03:21:22.417Z,2.50
2022-12-22T03:22:23.329Z,3.30
2022-12-22T03:23:24.201Z,2.30
2022-12-22T03:24:25.085Z,2.30
2022-12-22T03:25:25.981Z,3.50
2022-12-22T03:26:26.860Z,3.10
2022-12-22T03:27:27.746Z,2.30
2022-12-22T03:28:28.663Z,3.10
2022-12-22T03:29:29.529Z,3.50
2022-12-22T03:30:30.426Z,6.70
2022-12-22T03:31:31.405Z,4.80
2022-12-22T03:32:32.246Z,7.50
2022-12-22T03:33:33.133Z,10.20
2022-12-22T03:34:34.013Z,9.90
2022-12-22T03:35:34.899Z,11.00
2022-12-22T03:36:35.786Z,9.20
2022-12-22T03:37:36.688Z,8.10
2022-12-22T03:38:37.557Z,8.00
2022-12-22T03:39:38.443Z,8.70
2022-12-22T03:40:39.320Z,8.90
2022-12-22T03:41:40.204Z,10.00
2022-12-22T03:42:41.095Z,5.70
2022-12-22T03:43:41.979Z,4.40
2022-12-22T03:44:42.868Z,4.90
2022-12-22T03:45:43.758Z,6.40
2022-12-22T03:46:44.673Z,6.30
2022-12-22T03:47:45.525Z,5.90
2022-12-22T03:48:46.415Z,4.00
2022-12-22T03:49:47.544Z,3.40
2022-12-22T03:50:47.947Z,3.60
2022-12-22T03:51:48.836Z,4.00
2022-12-22T03:52:49.783Z,4.30
2022-12-22T03:53:50.644Z,4.50
2022-12-22T03:54:51.535Z,4.40
2022-12-22T03:55:52.421Z,3.80
2022-12-22T03:56:53.298Z,5.30
2022-12-22T03:57:54.182Z,5.80
2022-12-22T03:58:55.074Z,5.70
2022-12-22T03:59:55.955Z,6.70
2022-12-22T04:00:56.861Z,5.40
2022-12-22T04:01:57.950Z,6.10
2022-12-22T04:02:58.540Z,7.30
2022-12-22T04:03:59.009Z,5.70
2022-12-22T04:04:59.886Z,5.40
2022-12-22T04:06:00.776Z,6.90
2022-12-22T04:07:01.654Z,6.20
2022-12-22T04:08:02.558Z,5.90
2022-12-22T04:09:03.431Z,6.30
2022-12-22T04:10:04.314Z,4.70
2022-12-22T04:11:05.204Z,6.30
2022-12-22T04:12:06.084Z,12.90
2022-12-22T04:13:06.967Z,7.60
2022-12-22T04:14:07.856Z,9.40
2022-12-22T04:15:08.742Z,7.40
2022-12-22T04:16:09.688Z,7.80
2022-12-22T04:17:10.527Z,5.80
2022-12-22T04:18:11.402Z,6.10
2022-12-22T04:19:12.295Z,9.10
2022-12-22T04:20:13.184Z,6.10
2022-12-22T04:21:14.072Z,5.50
2022-12-22T04:22:14.953Z,5.60
2022-12-22T04:23:15.850Z,5.70
2022-12-22T04:24:16.743Z,6.30
2022-12-22T04:25:17.625Z,6.80
2022-12-22T04:26:18.508Z,5.20
2022-12-22T04:27:19.395Z,4.90
2022-12-22T04:28:20.353Z,4.40
2022-12-22T04:29:21.228Z,3.90
2022-12-22T04:30:22.108Z,3.50
2022-12-22T04:31:23.029Z,2.90
2022-12-22T04:32:23.873Z,4.30
2022-12-22T04:33:24.760Z,2.80
2022-12-22T04:34:25.650Z,2.90
2022-12-22T04:35:26.534Z,3.00
2022-12-22T04:36:27.419Z,3.30
2022-12-22T04:37:28.306Z,3.40
2022-12-22T04:38:29.233Z,2.70
2022-12-22T04:39:30.097Z,3.80
2022-12-22T04:40:30.980Z,3.50
2022-12-22T04:41:31.899Z,4.30
2022-12-22T04:42:32.764Z,6.40
2022-12-22T04:43:33.633Z,4.30
2022-12-22T04:44:34.557Z,2.60
2022-12-22T04:45:35.481Z,4.00
2022-12-22T04:46:36.354Z,5.60
2022-12-22T04:47:37.236Z,3.40
2022-12-22T04:48:38.124Z,3.50
2022-12-22T04:49:39.017Z,4.50
2022-12-22T04:50:39.901Z,2.70
2022-12-22T04:51:40.776Z,3.80
2022-12-22T04:52:41.659Z,34.10
2022-12-22T04:53:42.621Z,52.60
2022-12-22T04:54:43.490Z,33.20
2022-12-22T04:55:44.378Z,10.90
2022-12-22T04:56:45.260Z,11.10
2022-12-22T04:57:46.148Z,5.30
2022-12-22T04:58:47.026Z,5.30
2022-12-22T04:59:47.928Z,3.20
2022-12-22T05:00:48.885Z,3.90
2022-12-22T05:01:49.844Z,1.80
2022-12-22T05:02:50.454Z,2.30
2022-12-22T05:03:51.747Z,1.90
2022-12-22T05:04:51.644Z,1.60
2022-12-22T05:05:52.526Z,1.60
2022-12-22T05:06:53.412Z,2.30
2022-12-22T05:07:54.307Z,1.50
2022-12-22T05:08:55.206Z,1.10
2022-12-22T05:09:56.070Z,1.60
2022-12-22T05:10:56.954Z,2.90
2022-12-22T05:11:57.844Z,3.20
2022-12-22T05:12:58.724Z,3.20
2022-12-22T05:14:05.205Z,4.50
2022-12-22T05:15:01.379Z,3.40
2022-12-22T05:16:01.258Z,3.60
2022-12-22T05:17:02.214Z,5.30
2022-12-22T05:18:03.070Z,3.80
2022-12-22T05:19:03.957Z,5.90
2022-12-22T05:20:04.836Z,7.50
2022-12-22T05:21:05.729Z,4.20
2022-12-22T05:22:06.608Z,5.20
2022-12-22T05:23:07.474Z,4.10
2022-12-22T05:24:08.389Z,5.10
2022-12-22T05:25:09.252Z,5.60
2022-12-22T05:26:10.154Z,4.90
2022-12-22T05:27:11.023Z,4.20
2022-12-22T05:28:11.908Z,4.10
2022-12-22T05:29:12.798Z,3.60
2022-12-22T05:30:13.726Z,4.80
2022-12-22T05:31:14.620Z,4.20
2022-12-22T05:32:15.461Z,4.00
2022-12-22T05:33:16.356Z,3.80
2022-12-22T05:34:17.229Z,4.60
2022-12-22T05:35:18.128Z,5.80
2022-12-22T05:36:19.008Z,5.10
2022-12-22T05:37:19.890Z,5.80
2022-12-22T05:38:20.774Z,3.90
2022-12-22T05:39:21.687Z,2.90
2022-12-22T05:40:22.552Z,3.40
2022-12-22T05:41:23.425Z,17.10
2022-12-22T05:42:24.310Z,10.80
2022-12-22T05:43:25.198Z,6.20
2022-12-22T05:44:26.078Z,5.10
2022-12-22T05:45:26.973Z,2.90
2022-12-22T05:46:27.976Z,2.70
2022-12-22T05:47:28.359Z,3.50
2022-12-22T05:48:35.319Z,3.10
2022-12-22T05:49:31.014Z,2.40
2022-12-22T05:50:30.910Z,2.20
2022-12-22T05:51:31.793Z,4.00
2022-12-22T05:52:32.681Z,4.60
2022-12-22T05:53:33.568Z,5.80
2022-12-22T05:54:34.468Z,7.50
2022-12-22T05:55:35.335Z,8.90
2022-12-22T05:56:36.220Z,8.60
2022-12-22T05:57:37.109Z,9.00
2022-12-22T05:58:37.999Z,12.70
2022-12-22T05:59:38.873Z,6.30
2022-12-22T06:00:39.768Z,5.40
2022-12-22T06:01:40.672Z,16.10
2022-12-22T06:02:41.612Z,21.80
2022-12-22T06:03:42.240Z,21.10
2022-12-22T06:04:42.642Z,10.60
2022-12-22T06:05:43.541Z,12.10
2022-12-22T06:06:44.420Z,10.90
2022-12-22T06:07:45.302Z,18.00
2022-12-22T06:08:46.187Z,22.80
2022-12-22T06:09:47.110Z,13.10
2022-12-22T06:10:47.955Z,9.30
2022-12-22T06:11:48.845Z,7.70
2022-12-22T06:12:49.723Z,7.70
2022-12-22T06:13:50.619Z,6.80
2022-12-22T06:14:51.491Z,4.50
2022-12-22T06:15:52.436Z,4.30
2022-12-22T06:16:53.274Z,4.60
2022-12-22T06:17:54.159Z,3.30
2022-12-22T06:18:55.038Z,4.30
2022-12-22T06:19:55.927Z,2.30
2022-12-22T06:20:56.814Z,2.80
2022-12-22T06:21:57.700Z,3.70
2022-12-22T06:22:58.583Z,4.20
2022-12-22T06:23:59.481Z,6.30
2022-12-22T06:25:00.373Z,6.20
2022-12-22T06:26:01.258Z,8.80
2022-12-22T06:27:02.130Z,13.70
2022-12-22T06:28:03.016Z,9.60
2022-12-22T06:29:03.898Z,5.10
2022-12-22T06:30:04.777Z,5.70
2022-12-22T06:31:05.716Z,7.90
2022-12-22T06:32:06.501Z,7.00
2022-12-22T06:33:07.392Z,6.20
2022-12-22T06:34:08.218Z,9.70
2022-12-22T06:35:09.047Z,7.40
2022-12-22T06:36:09.947Z,6.20
2022-12-22T06:37:10.781Z,4.20
2022-12-22T06:38:11.640Z,5.20
2022-12-22T06:39:12.504Z,66.60
2022-12-22T06:40:13.369Z,75.40
2022-12-22T06:41:14.185Z,14.10
2022-12-22T06:42:14.997Z,14.60
2022-12-22T06:43:15.822Z,8.40
2022-12-22T06:44:16.656Z,6.60
2022-12-22T06:45:17.487Z,6.80
2022-12-22T06:46:18.374Z,8.80
2022-12-22T06:47:19.211Z,12.80
2022-12-22T06:48:20.025Z,36.50
2022-12-22T06:49:20.853Z,62.00
2022-12-22T06:50:21.680Z,48.80
2022-12-22T06:51:22.526Z,64.00
2022-12-22T06:52:23.354Z,58.40
2022-12-22T06:53:24.187Z,22.90
2022-12-22T06:54:26.486Z,16.20
2022-12-22T06:55:25.948Z,22.40
2022-12-22T06:56:26.772Z,4.60
2022-12-22T06:57:27.583Z,4.10
2022-12-22T06:58:28.415Z,21.30
2022-12-22T06:59:29.243Z,8.10
2022-12-22T07:00:30.153Z,6.30
2022-12-22T07:01:31.083Z,4.80
2022-12-22T07:02:32.141Z,5.50
2022-12-22T07:03:32.713Z,7.10
2022-12-22T07:04:33.524Z,37.60
2022-12-22T07:05:34.356Z,61.60
2022-12-22T07:06:35.183Z,17.00
2022-12-22T07:07:36.015Z,30.00
2022-12-22T07:08:36.847Z,24.80
2022-12-22T07:09:37.674Z,46.40
2022-12-22T07:10:38.567Z,14.70
2022-12-22T07:11:39.349Z,16.20
2022-12-22T07:12:40.178Z,76.40
2022-12-22T07:13:41.006Z,88.50
2022-12-22T07:14:41.835Z,65.70
2022-12-22T07:15:42.691Z,24.70
2022-12-22T07:16:43.597Z,11.90
2022-12-22T07:17:44.402Z,7.40
2022-12-22T07:18:45.246Z,8.90
2022-12-22T07:19:46.047Z,4.60
2022-12-22T07:20:46.886Z,5.10
2022-12-22T07:21:47.736Z,5.90
2022-12-22T07:22:48.595Z,5.00
2022-12-22T07:23:49.431Z,5.50
2022-12-22T07:24:50.253Z,5.90
2022-12-22T07:25:51.102Z,7.40
2022-12-22T07:26:51.925Z,8.20
2022-12-22T07:27:52.756Z,8.30
2022-12-22T07:28:53.587Z,9.00
2022-12-22T07:29:54.436Z,5.10
2022-12-22T07:30:55.427Z,5.00
2022-12-22T07:31:56.323Z,3.90
2022-12-22T07:32:57.163Z,2.90
2022-12-22T07:33:57.997Z,6.30
2022-12-22T07:35:04.952Z,5.50
2022-12-22T07:36:00.541Z,5.30
2022-12-22T07:37:00.385Z,6.70
2022-12-22T07:38:01.207Z,5.20
2022-12-22T07:39:02.032Z,12.00
2022-12-22T07:40:02.855Z,12.70
2022-12-22T07:41:05.564Z,9.60
2022-12-22T07:42:04.476Z,10.80
2022-12-22T07:43:05.321Z,11.40
2022-12-22T07:44:06.143Z,20.50
2022-12-22T07:45:06.967Z,9.00
2022-12-22T07:46:07.837Z,7.80
2022-12-22T07:47:08.645Z,6.50
2022-12-22T07:48:09.465Z,6.90
2022-12-22T07:49:10.299Z,8.00
2022-12-22T07:50:11.127Z,6.00
2022-12-22T07:51:11.965Z,4.80
2022-12-22T07:52:12.786Z,4.30
2022-12-22T07:53:13.616Z,6.20
2022-12-22T07:54:14.436Z,3.80
2022-12-22T07:55:15.268Z,3.10
2022-12-22T07:56:16.236Z,4.30
2022-12-22T07:57:17.013Z,5.80
2022-12-22T07:58:17.848Z,5.00
2022-12-22T07:59:18.675Z,3.80
2022-12-22T08:00:19.508Z,3.50
2022-12-22T08:01:20.347Z,4.00
2022-12-22T08:02:21.338Z,7.50
2022-12-22T08:03:21.830Z,7.20
2022-12-22T08:04:22.787Z,10.40
2022-12-22T08:05:23.186Z,12.10
2022-12-22T08:06:23.989Z,5.70
2022-12-22T08:07:24.828Z,3.00
2022-12-22T08:08:25.659Z,5.60
2022-12-22T08:09:26.491Z,4.80
2022-12-22T08:10:27.341Z,5.00
2022-12-22T08:11:28.178Z,3.80
2022-12-22T08:12:29.009Z,3.90
2022-12-22T08:13:29.963Z,3.20
2022-12-22T08:14:30.729Z,3.40
2022-12-22T08:15:31.438Z,5.40
2022-12-22T08:16:32.347Z,5.00
2022-12-22T08:17:33.169Z,4.70
2022-12-22T08:18:34.016Z,5.60
2022-12-22T08:19:34.859Z,7.20
2022-12-22T08:20:35.675Z,9.30
2022-12-22T08:21:36.493Z,7.70
2022-12-22T08:22:37.324Z,7.40
2022-12-22T08:23:38.157Z,8.30
2022-12-22T08:24:38.991Z,10.70
2022-12-22T08:25:39.823Z,20.70
2022-12-22T08:26:41.282Z,18.10
2022-12-22T08:27:41.150Z,15.60
2022-12-22T08:28:41.984Z,7.20
2022-12-22T08:29:42.807Z,8.70
2022-12-22T08:30:43.653Z,3.80
2022-12-22T08:31:44.673Z,3.80
2022-12-22T08:32:44.992Z,4.80
2022-12-22T08:33:45.825Z,4.90
2022-12-22T08:34:46.658Z,3.20
2022-12-22T08:35:47.482Z,3.80
2022-12-22T08:36:48.317Z,5.20
2022-12-22T08:37:49.166Z,4.50
2022-12-22T08:38:49.983Z,3.60
2022-12-22T08:39:50.816Z,2.80
2022-12-22T08:40:51.645Z,5.00
2022-12-22T08:41:52.726Z,6.40
2022-12-22T08:42:53.138Z,3.80
2022-12-22T08:43:53.969Z,3.80
2022-12-22T08:44:54.798Z,3.30
2022-12-22T08:45:55.633Z,4.10
2022-12-22T08:46:56.561Z,5.10
2022-12-22T08:47:57.374Z,6.40
2022-12-22T08:48:58.210Z,6.60
2022-12-22T08:49:59.038Z,3.00
2022-12-22T08:50:59.881Z,4.00
2022-12-22T08:52:00.700Z,9.60
2022-12-22T08:53:01.540Z,12.20
2022-12-22T08:54:05.011Z,14.80
2022-12-22T08:55:02.965Z,12.00
2022-12-22T08:56:03.798Z,14.00
2022-12-22T08:57:04.644Z,16.70
2022-12-22T08:58:05.479Z,14.20
2022-12-22T08:59:06.299Z,13.50
2022-12-22T09:00:07.139Z,7.30
2022-12-22T09:01:08.142Z,7.50
2022-12-22T09:02:08.661Z,6.40
2022-12-22T09:03:09.671Z,7.50
2022-12-22T09:04:10.040Z,8.50
2022-12-22T09:05:10.873Z,8.50
2022-12-22T09:06:11.707Z,4.90
2022-12-22T09:07:12.528Z,4.30
2022-12-22T09:08:13.370Z,7.70
2022-12-22T09:09:14.210Z,6.90
2022-12-22T09:10:15.045Z,5.90
2022-12-22T09:11:15.860Z,7.30
2022-12-22T09:12:16.709Z,6.30
2022-12-22T09:13:17.523Z,7.70
2022-12-22T09:14:18.360Z,5.60
2022-12-22T09:15:19.195Z,3.80
2022-12-22T09:16:20.079Z,3.00
2022-12-22T09:17:20.887Z,3.10
2022-12-22T09:18:21.721Z,2.00
2022-12-22T09:19:22.592Z,2.30
2022-12-22T09:20:23.385Z,4.30
2022-12-22T09:21:24.200Z,3.10
2022-12-22T09:22:28.233Z,4.60
2022-12-22T09:23:26.016Z,3.40
2022-12-22T09:24:26.845Z,3.80
2022-12-22T09:25:27.677Z,14.10
2022-12-22T09:26:28.363Z,17.80
2022-12-22T09:27:29.212Z,13.10
2022-12-22T09:28:30.039Z,12.30
2022-12-22T09:29:30.873Z,7.00
2022-12-22T09:30:31.708Z,7.10
2022-12-22T09:31:32.592Z,6.20
2022-12-22T09:32:33.407Z,5.50
2022-12-22T09:33:34.268Z,5.60
2022-12-22T09:34:35.074Z,3.80
2022-12-22T09:35:35.910Z,4.90
2022-12-22T09:36:36.754Z,4.90
2022-12-22T09:37:37.566Z,4.70
2022-12-22T09:38:38.422Z,3.80
2022-12-22T09:39:39.254Z,3.80
2022-12-22T09:40:40.090Z,3.60
2022-12-22T09:41:40.915Z,4.30
2022-12-22T09:42:41.803Z,4.40
2022-12-22T09:43:42.595Z,6.20
2022-12-22T09:44:43.418Z,3.20
2022-12-22T09:45:44.326Z,3.40
2022-12-22T09:46:45.167Z,3.60
2022-12-22T09:47:46.005Z,3.20
2022-12-22T09:48:46.865Z,3.90
2022-12-22T09:49:47.688Z,3.30
2022-12-22T09:50:48.522Z,2.70
2022-12-22T09:51:49.362Z,2.40
2022-12-22T09:52:50.187Z,3.40
2022-12-22T09:53:51.025Z,2.00
2022-12-22T09:54:51.859Z,3.40
2022-12-22T09:55:52.682Z,3.00
2022-12-22T09:56:53.524Z,2.70
2022-12-22T09:57:54.374Z,2.10
2022-12-22T09:58:55.206Z,5.30
2022-12-22T09:59:56.017Z,1.70
2022-12-22T10:00:56.887Z,1.90
2022-12-22T10:01:57.808Z,1.90
2022-12-22T10:02:58.651Z,1.70
2022-12-22T10:04:00.942Z,1.20
2022-12-22T10:05:00.047Z,2.30
2022-12-22T10:06:00.829Z,2.20
2022-12-22T10:07:01.662Z,5.60
2022-12-22T10:08:02.506Z,6.50
2022-12-22T10:09:05.829Z,6.60
2022-12-22T10:10:05.055Z,7.80
2022-12-22T10:11:04.890Z,6.70
2022-12-22T10:12:05.708Z,9.40
2022-12-22T10:13:06.571Z,10.50
2022-12-22T10:14:07.389Z,10.50
2022-12-22T10:15:08.225Z,10.20
2022-12-22T10:16:09.067Z,14.10
2022-12-22T10:17:09.963Z,10.40
2022-12-22T10:18:10.782Z,11.20
2022-12-22T10:19:11.766Z,9.70
2022-12-22T10:20:12.344Z,11.50
2022-12-22T10:21:13.191Z,11.00
2022-12-22T10:22:14.002Z,9.10
2022-12-22T10:23:14.840Z,4.60
2022-12-22T10:24:15.755Z,3.70
2022-12-22T10:25:16.593Z,2.50
2022-12-22T10:26:27.907Z,2.80
2022-12-22T10:27:23.077Z,2.60
2022-12-22T10:28:19.865Z,4.70
2022-12-22T10:29:19.683Z,8.00
2022-12-22T10:30:20.515Z,11.20
2022-12-22T10:31:21.449Z,9.70
2022-12-22T10:32:22.359Z,11.20
2022-12-22T10:33:23.179Z,17.00
2022-12-22T10:34:24.032Z,24.80
2022-12-22T10:35:24.857Z,23.70
2022-12-22T10:36:25.696Z,29.40
2022-12-22T10:37:26.657Z,26.10
2022-12-22T10:38:27.642Z,25.20
2022-12-22T10:39:28.693Z,22.70
2022-12-22T10:40:29.017Z,13.70
2022-12-22T10:41:29.838Z,9.30
2022-12-22T10:42:30.668Z,7.10
2022-12-22T10:43:31.518Z,9.00
2022-12-22T10:44:32.343Z,9.10
2022-12-22T10:45:33.345Z,8.70
2022-12-22T10:46:34.316Z,9.40
2022-12-22T10:47:34.642Z,9.60
2022-12-22T10:48:35.498Z,5.90
2022-12-22T10:50:45.208Z,5.60
2022-12-22T10:51:46.041Z,5.60
2022-12-22T10:52:46.890Z,3.90
2022-12-22T10:53:47.724Z,3.80
2022-12-22T10:54:48.566Z,3.80
2022-12-22T10:55:49.398Z,2.30
2022-12-22T10:56:50.224Z,3.40
2022-12-22T10:57:51.059Z,2.90
2022-12-22T10:58:51.901Z,2.20
2022-12-22T10:59:52.733Z,1.70
2022-12-22T11:00:53.695Z,1.90
2022-12-22T11:01:54.707Z,2.80
2022-12-22T11:02:55.259Z,1.80
2022-12-22T11:03:55.658Z,1.90
2022-12-22T11:04:56.475Z,1.50
2022-12-22T11:05:57.304Z,1.10
2022-12-22T11:06:58.136Z,0.80
2022-12-22T11:07:58.972Z,0.90
2022-12-22T11:09:31.200Z,1.20
2022-12-22T11:10:01.546Z,0.90
2022-12-22T11:11:01.353Z,1.30
2022-12-22T11:12:02.204Z,1.90
2022-12-22T11:13:03.033Z,0.90
2022-12-22T11:14:03.873Z,1.90
2022-12-22T11:15:04.700Z,0.80
2022-12-22T11:16:05.525Z,3.40
2022-12-22T11:17:06.448Z,0.70
2022-12-22T11:18:07.306Z,1.00
2022-12-22T11:19:08.137Z,1.00
2022-12-22T11:20:08.978Z,1.30
2022-12-22T11:21:09.812Z,1.20
2022-12-22T11:22:10.638Z,1.00
2022-12-22T11:23:11.491Z,1.70
2022-12-22T11:24:12.297Z,1.30
2022-12-22T11:25:13.134Z,3.80
2022-12-22T11:26:13.959Z,2.40
2022-12-22T11:27:14.811Z,1.50
2022-12-22T11:28:15.652Z,5.30
2022-12-22T11:29:16.501Z,6.30
2022-12-22T11:30:17.342Z,15.60
2022-12-22T11:31:18.251Z,20.20
2022-12-22T11:32:19.094Z,22.50
2022-12-22T11:33:19.918Z,5.80
2022-12-22T11:34:21.411Z,16.20
2022-12-22T11:35:21.492Z,72.60
2022-12-22T11:36:22.340Z,97.10
2022-12-22T11:37:23.171Z,67.50
2022-12-22T11:38:23.994Z,40.20
2022-12-22T11:39:24.871Z,22.40
2022-12-22T11:40:25.711Z,14.00
2022-12-22T11:41:26.556Z,7.90
2022-12-22T11:42:27.398Z,6.30
2022-12-22T11:43:28.212Z,12.50
2022-12-22T11:44:29.082Z,2.60
2022-12-22T11:45:29.903Z,2.50
2022-12-22T11:46:30.817Z,1.70
2022-12-22T11:47:31.595Z,1.50
2022-12-22T11:48:32.425Z,2.20
2022-12-22T11:49:33.256Z,1.10
2022-12-22T11:51:01.727Z,1.60
2022-12-22T11:51:35.811Z,1.10
2022-12-22T11:52:35.656Z,1.80
2022-12-22T11:53:36.476Z,3.70
2022-12-22T11:54:37.300Z,3.80
2022-12-22T11:55:38.172Z,3.80
2022-12-22T11:56:38.977Z,2.90
2022-12-22T11:57:39.809Z,2.50
2022-12-22T11:58:40.636Z,3.20
2022-12-22T11:59:41.508Z,3.30
2022-12-22T12:01:12.763Z,2.20
2022-12-22T12:01:44.050Z,2.30
2022-12-22T12:02:43.928Z,3.40
2022-12-22T12:03:44.831Z,2.40
2022-12-22T12:04:45.611Z,3.10
2022-12-22T12:05:46.455Z,3.20
2022-12-22T12:06:47.294Z,4.00
2022-12-22T12:07:48.147Z,2.70
2022-12-22T12:08:48.955Z,4.20
2022-12-22T12:09:49.780Z,1.90
2022-12-22T12:10:50.639Z,1.90
2022-12-22T12:11:51.477Z,4.30
2022-12-22T12:12:52.296Z,2.90
2022-12-22T12:13:53.132Z,1.90
2022-12-22T12:14:53.990Z,2.20
2022-12-22T12:15:54.813Z,4.60
2022-12-22T12:16:55.623Z,17.40
2022-12-22T12:17:56.447Z,9.30
2022-12-22T12:18:57.277Z,3.60
2022-12-22T12:19:58.109Z,4.10
2022-12-22T12:20:58.948Z,6.90
2022-12-22T12:21:59.789Z,4.50
2022-12-22T12:23:00.611Z,2.90
2022-12-22T12:24:01.449Z,2.20
2022-12-22T12:25:02.285Z,3.70
2022-12-22T12:26:03.158Z,3.60
2022-12-22T12:27:03.966Z,3.60
2022-12-22T12:28:04.796Z,3.60
2022-12-22T12:29:05.624Z,1.10
2022-12-22T12:30:37.125Z,2.60
2022-12-22T12:31:08.221Z,3.50
2022-12-22T12:32:08.078Z,3.90
2022-12-22T12:33:09.004Z,3.50
2022-12-22T12:34:09.799Z,2.90
2022-12-22T12:35:10.646Z,2.80
2022-12-22T12:36:11.495Z,3.30
2022-12-22T12:37:12.325Z,3.90
2022-12-22T12:38:32.565Z,3.70
2022-12-22T12:39:14.874Z,2.40
2022-12-22T12:40:14.700Z,3.50
2022-12-22T12:41:15.537Z,2.60
2022-12-22T12:42:16.372Z,3.40
2022-12-22T12:43:17.200Z,3.50
2022-12-22T12:44:18.036Z,3.40
2022-12-22T12:45:18.880Z,2.40
2022-12-22T12:46:19.731Z,4.50
2022-12-22T12:47:20.534Z,4.80
2022-12-22T12:48:21.366Z,2.90
2022-12-22T12:49:26.431Z,3.10
2022-12-22T12:50:22.937Z,4.40
2022-12-22T12:51:23.799Z,4.40
2022-12-22T12:52:24.623Z,9.10
2022-12-22T12:53:25.457Z,7.10
2022-12-22T12:54:26.277Z,10.40
2022-12-22T12:55:31.882Z,11.20
2022-12-22T12:56:28.833Z,10.00
2022-12-22T12:57:28.677Z,3.90
2022-12-22T12:58:29.495Z,2.10
2022-12-22T12:59:30.325Z,2.90
2022-12-22T13:00:31.255Z,2.20
2022-12-22T13:01:32.300Z,2.70
2022-12-22T13:02:32.887Z,4.80
2022-12-22T13:04:35.188Z,3.10
2022-12-22T13:05:35.002Z,2.90
2022-12-22T13:06:35.842Z,2.90
2022-12-22T13:07:36.674Z,3.90
2022-12-22T13:08:37.503Z,3.00
2022-12-22T13:09:53.792Z,2.00
2022-12-22T13:10:40.064Z,2.10
2022-12-22T13:12:11.241Z,2.40
2022-12-22T13:12:41.612Z,2.90
2022-12-22T13:13:41.458Z,1.00
2022-12-22T13:14:42.274Z,0.80
2022-12-22T13:15:43.164Z,2.20
2022-12-22T13:16:43.960Z,1.30
2022-12-22T13:17:44.969Z,1.40
2022-12-22T13:18:49.872Z,2.10
2022-12-22T13:19:47.500Z,4.00
2022-12-22T13:20:47.324Z,3.10
2022-12-22T13:21:53.600Z,1.50
2022-12-22T13:22:49.877Z,2.20
2022-12-22T13:24:22.403Z,2.70
2022-12-22T13:24:51.432Z,1.70